sensor_id;sensor_type;location;lat;lon;timestamp;P1;durP1;ratioP1;P2;durP2;ratioP2
55794;SDS011;41716;51.910;4.430;2023-04-06T00:03:49;15.70;;;8.32;;
55794;SDS011;41716;51.910;4.430;2023-04-06T00:08:51;15.38;;;9.05;;
55794;SDS011;41716;51.910;4.430;2023-04-06T00:13:54;16.65;;;9.30;;
55794;SDS011;41716;51.910;4.430;2023-04-06T00:18:56;17.75;;;9.10;;
55794;SDS011;41716;51.910;4.430;2023-04-06T00:23:57;16.05;;;9.07;;
55794;SDS011;41716;51.910;4.430;2023-04-06T00:29:00;16.20;;;9.63;;
55794;SDS011;41716;51.910;4.430;2023-04-06T00:34:02;16.88;;;9.35;;
55794;SDS011;41716;51.910;4.430;2023-04-06T00:39:04;17.23;;;8.85;;
55794;SDS011;41716;51.910;4.430;2023-04-06T00:44:07;13.20;;;7.80;;
55794;SDS011;41716;51.910;4.430;2023-04-06T00:49:09;14.27;;;8.53;;
55794;SDS011;41716;51.910;4.430;2023-04-06T00:54:11;15.07;;;8.25;;
55794;SDS011;41716;51.910;4.430;2023-04-06T00:59:14;12.57;;;7.82;;
55794;SDS011;41716;51.910;4.430;2023-04-06T01:04:15;15.10;;;9.07;;
55794;SDS011;41716;51.910;4.430;2023-04-06T01:09:17;13.77;;;8.57;;
55794;SDS011;41716;51.910;4.430;2023-04-06T01:14:20;16.95;;;8.63;;
55794;SDS011;41716;51.910;4.430;2023-04-06T01:19:22;16.50;;;10.27;;
55794;SDS011;41716;51.910;4.430;2023-04-06T01:24:25;16.35;;;9.57;;
55794;SDS011;41716;51.910;4.430;2023-04-06T01:29:27;15.60;;;9.52;;
55794;SDS011;41716;51.910;4.430;2023-04-06T01:34:29;16.60;;;9.52;;
55794;SDS011;41716;51.910;4.430;2023-04-06T01:39:32;16.33;;;9.50;;
55794;SDS011;41716;51.910;4.430;2023-04-06T01:44:34;17.85;;;10.20;;
55794;SDS011;41716;51.910;4.430;2023-04-06T01:49:35;17.45;;;10.60;;
55794;SDS011;41716;51.910;4.430;2023-04-06T01:54:38;18.02;;;10.38;;
55794;SDS011;41716;51.910;4.430;2023-04-06T01:59:40;15.33;;;9.53;;
55794;SDS011;41716;51.910;4.430;2023-04-06T02:04:42;21.15;;;9.85;;
55794;SDS011;41716;51.910;4.430;2023-04-06T02:09:45;13.93;;;8.55;;
55794;SDS011;41716;51.910;4.430;2023-04-06T02:14:47;15.88;;;8.63;;
55794;SDS011;41716;51.910;4.430;2023-04-06T02:19:48;17.20;;;9.77;;
55794;SDS011;41716;51.910;4.430;2023-04-06T02:24:51;17.73;;;9.40;;
55794;SDS011;41716;51.910;4.430;2023-04-06T02:29:53;15.02;;;8.68;;
55794;SDS011;41716;51.910;4.430;2023-04-06T02:34:55;17.50;;;9.00;;
55794;SDS011;41716;51.910;4.430;2023-04-06T02:39:58;16.15;;;9.15;;
55794;SDS011;41716;51.910;4.430;2023-04-06T02:44:59;16.08;;;8.60;;
55794;SDS011;41716;51.910;4.430;2023-04-06T02:50:01;15.02;;;8.48;;
55794;SDS011;41716;51.910;4.430;2023-04-06T02:55:05;19.17;;;9.18;;
55794;SDS011;41716;51.910;4.430;2023-04-06T03:00:08;18.10;;;9.63;;
55794;SDS011;41716;51.910;4.430;2023-04-06T03:05:11;20.92;;;9.57;;
55794;SDS011;41716;51.910;4.430;2023-04-06T03:10:14;18.20;;;8.75;;
55794;SDS011;41716;51.910;4.430;2023-04-06T03:15:16;16.63;;;9.23;;
55794;SDS011;41716;51.910;4.430;2023-04-06T03:20:17;18.17;;;9.27;;
55794;SDS011;41716;51.910;4.430;2023-04-06T03:25:20;17.25;;;9.23;;
55794;SDS011;41716;51.910;4.430;2023-04-06T03:30:22;16.33;;;9.10;;
55794;SDS011;41716;51.910;4.430;2023-04-06T03:35:24;17.25;;;9.18;;
55794;SDS011;41716;51.910;4.430;2023-04-06T03:40:27;18.77;;;9.48;;
55794;SDS011;41716;51.910;4.430;2023-04-06T03:45:28;16.37;;;8.57;;
55794;SDS011;41716;51.910;4.430;2023-04-06T03:50:30;17.58;;;9.73;;
55794;SDS011;41716;51.910;4.430;2023-04-06T03:55:33;17.80;;;8.73;;
55794;SDS011;41716;51.910;4.430;2023-04-06T04:00:35;17.85;;;9.57;;
55794;SDS011;41716;51.910;4.430;2023-04-06T04:05:37;17.35;;;9.60;;
55794;SDS011;41716;51.910;4.430;2023-04-06T04:10:40;21.13;;;9.90;;
55794;SDS011;41716;51.910;4.430;2023-04-06T04:15:41;16.88;;;9.68;;
55794;SDS011;41716;51.910;4.430;2023-04-06T04:20:43;17.30;;;9.52;;
55794;SDS011;41716;51.910;4.430;2023-04-06T04:25:46;18.15;;;9.13;;
55794;SDS011;41716;51.910;4.430;2023-04-06T04:30:48;18.48;;;9.52;;
55794;SDS011;41716;51.910;4.430;2023-04-06T04:35:49;16.98;;;9.93;;
55794;SDS011;41716;51.910;4.430;2023-04-06T04:40:52;18.52;;;10.07;;
55794;SDS011;41716;51.910;4.430;2023-04-06T04:45:54;18.42;;;9.80;;
55794;SDS011;41716;51.910;4.430;2023-04-06T04:50:56;22.65;;;10.20;;
55794;SDS011;41716;51.910;4.430;2023-04-06T04:55:59;19.98;;;10.27;;
55794;SDS011;41716;51.910;4.430;2023-04-06T05:01:00;20.83;;;10.38;;
55794;SDS011;41716;51.910;4.430;2023-04-06T05:06:02;19.65;;;10.73;;
55794;SDS011;41716;51.910;4.430;2023-04-06T05:11:06;19.50;;;10.48;;
55794;SDS011;41716;51.910;4.430;2023-04-06T05:16:08;19.80;;;11.15;;
55794;SDS011;41716;51.910;4.430;2023-04-06T05:21:10;20.05;;;11.07;;
55794;SDS011;41716;51.910;4.430;2023-04-06T05:26:13;23.63;;;11.65;;
55794;SDS011;41716;51.910;4.430;2023-04-06T05:31:15;21.05;;;11.85;;
55794;SDS011;41716;51.910;4.430;2023-04-06T05:36:16;21.13;;;11.00;;
55794;SDS011;41716;51.910;4.430;2023-04-06T05:41:19;22.38;;;12.45;;
55794;SDS011;41716;51.910;4.430;2023-04-06T05:46:21;20.20;;;11.07;;
55794;SDS011;41716;51.910;4.430;2023-04-06T05:51:23;22.33;;;11.73;;
55794;SDS011;41716;51.910;4.430;2023-04-06T05:56:26;21.13;;;12.25;;
55794;SDS011;41716;51.910;4.430;2023-04-06T06:01:29;22.15;;;11.63;;
55794;SDS011;41716;51.910;4.430;2023-04-06T06:06:31;22.98;;;11.57;;
55794;SDS011;41716;51.910;4.430;2023-04-06T06:11:34;26.70;;;13.13;;
55794;SDS011;41716;51.910;4.430;2023-04-06T06:16:37;24.50;;;12.70;;
55794;SDS011;41716;51.910;4.430;2023-04-06T06:21:39;23.75;;;12.50;;
55794;SDS011;41716;51.910;4.430;2023-04-06T06:26:42;26.17;;;13.15;;
55794;SDS011;41716;51.910;4.430;2023-04-06T06:31:43;21.00;;;11.52;;
55794;SDS011;41716;51.910;4.430;2023-04-06T06:36:45;19.70;;;11.75;;
55794;SDS011;41716;51.910;4.430;2023-04-06T06:41:48;22.17;;;12.23;;
55794;SDS011;41716;51.910;4.430;2023-04-06T06:46:50;22.30;;;11.77;;
55794;SDS011;41716;51.910;4.430;2023-04-06T06:51:52;20.83;;;12.27;;
55794;SDS011;41716;51.910;4.430;2023-04-06T06:56:55;22.58;;;11.85;;
55794;SDS011;41716;51.910;4.430;2023-04-06T07:01:56;25.55;;;12.95;;
55794;SDS011;41716;51.910;4.430;2023-04-06T07:06:58;25.15;;;13.82;;
55794;SDS011;41716;51.910;4.430;2023-04-06T07:12:02;22.27;;;12.80;;
55794;SDS011;41716;51.910;4.430;2023-04-06T07:17:04;20.97;;;12.27;;
55794;SDS011;41716;51.910;4.430;2023-04-06T07:22:06;21.88;;;13.13;;
55794;SDS011;41716;51.910;4.430;2023-04-06T07:27:09;21.50;;;12.73;;
55794;SDS011;41716;51.910;4.430;2023-04-06T07:32:11;20.85;;;13.25;;
55794;SDS011;41716;51.910;4.430;2023-04-06T07:37:12;22.10;;;13.07;;
55794;SDS011;41716;51.910;4.430;2023-04-06T07:42:16;22.33;;;12.88;;
55794;SDS011;41716;51.910;4.430;2023-04-06T07:47:17;27.33;;;14.90;;
55794;SDS011;41716;51.910;4.430;2023-04-06T07:52:19;23.48;;;13.63;;
55794;SDS011;41716;51.910;4.430;2023-04-06T07:57:22;23.88;;;12.63;;
55794;SDS011;41716;51.910;4.430;2023-04-06T08:02:24;19.83;;;11.90;;
55794;SDS011;41716;51.910;4.430;2023-04-06T08:07:26;19.52;;;10.48;;
55794;SDS011;41716;51.910;4.430;2023-04-06T08:12:29;20.23;;;9.55;;
55794;SDS011;41716;51.910;4.430;2023-04-06T08:17:31;20.77;;;10.20;;
55794;SDS011;41716;51.910;4.430;2023-04-06T08:22:33;15.95;;;7.90;;
55794;SDS011;41716;51.910;4.430;2023-04-06T08:27:36;17.60;;;8.13;;
55794;SDS011;41716;51.910;4.430;2023-04-06T08:32:38;15.15;;;8.10;;
55794;SDS011;41716;51.910;4.430;2023-04-06T08:37:41;15.80;;;7.22;;
55794;SDS011;41716;51.910;4.430;2023-04-06T08:42:47;12.27;;;6.22;;
55794;SDS011;41716;51.910;4.430;2023-04-06T08:47:51;13.15;;;6.63;;
55794;SDS011;41716;51.910;4.430;2023-04-06T08:52:55;13.23;;;7.50;;
55794;SDS011;41716;51.910;4.430;2023-04-06T08:57:59;14.00;;;6.72;;
55794;SDS011;41716;51.910;4.430;2023-04-06T09:03:01;11.25;;;5.55;;
55794;SDS011;41716;51.910;4.430;2023-04-06T09:08:05;11.85;;;5.32;;
55794;SDS011;41716;51.910;4.430;2023-04-06T09:13:09;9.73;;;5.72;;
55794;SDS011;41716;51.910;4.430;2023-04-06T09:18:10;7.90;;;4.90;;
55794;SDS011;41716;51.910;4.430;2023-04-06T09:23:17;8.15;;;4.75;;
55794;SDS011;41716;51.910;4.430;2023-04-06T09:28:20;9.07;;;3.92;;
55794;SDS011;41716;51.910;4.430;2023-04-06T09:33:22;8.00;;;4.55;;
55794;SDS011;41716;51.910;4.430;2023-04-06T09:38:24;5.70;;;3.60;;
55794;SDS011;41716;51.910;4.430;2023-04-06T09:43:27;7.78;;;4.10;;
55794;SDS011;41716;51.910;4.430;2023-04-06T09:48:31;8.70;;;4.38;;
55794;SDS011;41716;51.910;4.430;2023-04-06T09:53:39;6.35;;;3.90;;
55794;SDS011;41716;51.910;4.430;2023-04-06T09:58:47;7.30;;;4.43;;
55794;SDS011;41716;51.910;4.430;2023-04-06T10:03:52;6.80;;;4.30;;
55794;SDS011;41716;51.910;4.430;2023-04-06T10:08:59;10.85;;;6.20;;
55794;SDS011;41716;51.910;4.430;2023-04-06T10:14:05;8.80;;;4.10;;
55794;SDS011;41716;51.910;4.430;2023-04-06T10:19:10;6.00;;;3.80;;
55794;SDS011;41716;51.910;4.430;2023-04-06T10:24:17;7.93;;;4.05;;
55794;SDS011;41716;51.910;4.430;2023-04-06T10:29:20;4.70;;;2.97;;
55794;SDS011;41716;51.910;4.430;2023-04-06T10:34:22;5.03;;;3.30;;
55794;SDS011;41716;51.910;4.430;2023-04-06T10:39:24;5.97;;;3.22;;
55794;SDS011;41716;51.910;4.430;2023-04-06T10:44:28;5.07;;;2.88;;
55794;SDS011;41716;51.910;4.430;2023-04-06T10:49:30;6.30;;;3.50;;
55794;SDS011;41716;51.910;4.430;2023-04-06T10:54:31;4.05;;;2.83;;
55794;SDS011;41716;51.910;4.430;2023-04-06T10:59:35;5.95;;;3.47;;
55794;SDS011;41716;51.910;4.430;2023-04-06T11:04:37;5.67;;;3.17;;
55794;SDS011;41716;51.910;4.430;2023-04-06T11:09:38;6.32;;;3.00;;
55794;SDS011;41716;51.910;4.430;2023-04-06T11:14:51;7.15;;;3.35;;
55794;SDS011;41716;51.910;4.430;2023-04-06T11:19:54;5.65;;;3.25;;
55794;SDS011;41716;51.910;4.430;2023-04-06T11:25:04;6.43;;;3.85;;
55794;SDS011;41716;51.910;4.430;2023-04-06T11:30:08;3.53;;;2.60;;
55794;SDS011;41716;51.910;4.430;2023-04-06T11:35:11;5.45;;;3.05;;
55794;SDS011;41716;51.910;4.430;2023-04-06T11:40:20;5.10;;;3.75;;
55794;SDS011;41716;51.910;4.430;2023-04-06T11:45:25;6.53;;;3.17;;
55794;SDS011;41716;51.910;4.430;2023-04-06T11:50:31;4.90;;;3.13;;
55794;SDS011;41716;51.910;4.430;2023-04-06T11:55:37;5.07;;;3.05;;
55794;SDS011;41716;51.910;4.430;2023-04-06T12:00:43;5.22;;;3.10;;
55794;SDS011;41716;51.910;4.430;2023-04-06T12:05:45;4.85;;;3.42;;
55794;SDS011;41716;51.910;4.430;2023-04-06T12:10:47;4.03;;;2.80;;
55794;SDS011;41716;51.910;4.430;2023-04-06T12:15:50;13.40;;;8.32;;
55794;SDS011;41716;51.910;4.430;2023-04-06T12:20:52;4.88;;;2.80;;
55794;SDS011;41716;51.910;4.430;2023-04-06T12:25:54;4.75;;;3.10;;
55794;SDS011;41716;51.910;4.430;2023-04-06T12:30:57;5.53;;;2.92;;
55794;SDS011;41716;51.910;4.430;2023-04-06T12:35:58;3.58;;;2.35;;
55794;SDS011;41716;51.910;4.430;2023-04-06T12:41:00;4.78;;;2.88;;
55794;SDS011;41716;51.910;4.430;2023-04-06T12:46:03;5.18;;;3.13;;
55794;SDS011;41716;51.910;4.430;2023-04-06T12:51:05;5.50;;;2.80;;
55794;SDS011;41716;51.910;4.430;2023-04-06T12:56:11;3.83;;;2.55;;
55794;SDS011;41716;51.910;4.430;2023-04-06T13:01:15;3.50;;;2.63;;
55794;SDS011;41716;51.910;4.430;2023-04-06T13:06:16;4.32;;;2.85;;
55794;SDS011;41716;51.910;4.430;2023-04-06T13:11:18;3.95;;;2.38;;
55794;SDS011;41716;51.910;4.430;2023-04-06T13:16:24;4.32;;;2.72;;
55794;SDS011;41716;51.910;4.430;2023-04-06T13:21:26;4.38;;;2.40;;
55794;SDS011;41716;51.910;4.430;2023-04-06T13:26:27;4.43;;;2.80;;
55794;SDS011;41716;51.910;4.430;2023-04-06T13:31:31;5.03;;;2.72;;
55794;SDS011;41716;51.910;4.430;2023-04-06T13:36:32;3.67;;;2.70;;
55794;SDS011;41716;51.910;4.430;2023-04-06T13:41:34;3.38;;;2.25;;
55794;SDS011;41716;51.910;4.430;2023-04-06T13:46:37;4.07;;;2.30;;
55794;SDS011;41716;51.910;4.430;2023-04-06T13:51:39;4.57;;;2.70;;
55794;SDS011;41716;51.910;4.430;2023-04-06T13:56:41;4.18;;;2.70;;
55794;SDS011;41716;51.910;4.430;2023-04-06T14:01:44;3.92;;;2.67;;
55794;SDS011;41716;51.910;4.430;2023-04-06T14:06:46;6.05;;;3.45;;
55794;SDS011;41716;51.910;4.430;2023-04-06T14:11:48;3.83;;;2.90;;
55794;SDS011;41716;51.910;4.430;2023-04-06T14:16:52;3.30;;;2.40;;
55794;SDS011;41716;51.910;4.430;2023-04-06T14:21:54;2.95;;;2.50;;
55794;SDS011;41716;51.910;4.430;2023-04-06T14:26:59;2.80;;;2.37;;
55794;SDS011;41716;51.910;4.430;2023-04-06T14:32:04;3.47;;;2.72;;
55794;SDS011;41716;51.910;4.430;2023-04-06T14:37:05;3.03;;;2.17;;
55794;SDS011;41716;51.910;4.430;2023-04-06T14:42:07;5.10;;;3.33;;
55794;SDS011;41716;51.910;4.430;2023-04-06T14:47:10;5.38;;;3.13;;
55794;SDS011;41716;51.910;4.430;2023-04-06T14:52:15;3.58;;;2.40;;
55794;SDS011;41716;51.910;4.430;2023-04-06T14:57:17;3.25;;;2.00;;
55794;SDS011;41716;51.910;4.430;2023-04-06T15:02:20;3.60;;;2.45;;
55794;SDS011;41716;51.910;4.430;2023-04-06T15:07:21;5.07;;;2.10;;
55794;SDS011;41716;51.910;4.430;2023-04-06T15:12:23;2.28;;;1.48;;
55794;SDS011;41716;51.910;4.430;2023-04-06T15:17:26;3.03;;;2.10;;
55794;SDS011;41716;51.910;4.430;2023-04-06T15:22:28;2.22;;;1.85;;
55794;SDS011;41716;51.910;4.430;2023-04-06T15:27:30;2.88;;;1.80;;
55794;SDS011;41716;51.910;4.430;2023-04-06T15:32:33;3.08;;;1.95;;
55794;SDS011;41716;51.910;4.430;2023-04-06T15:37:35;2.83;;;2.13;;
55794;SDS011;41716;51.910;4.430;2023-04-06T15:42:37;2.88;;;1.88;;
55794;SDS011;41716;51.910;4.430;2023-04-06T15:47:41;3.03;;;2.05;;
55794;SDS011;41716;51.910;4.430;2023-04-06T15:52:44;2.90;;;2.10;;
55794;SDS011;41716;51.910;4.430;2023-04-06T15:57:46;3.83;;;2.30;;
55794;SDS011;41716;51.910;4.430;2023-04-06T16:02:49;3.40;;;2.17;;
55794;SDS011;41716;51.910;4.430;2023-04-06T16:07:50;4.38;;;2.45;;
55794;SDS011;41716;51.910;4.430;2023-04-06T16:12:52;4.95;;;2.92;;
55794;SDS011;41716;51.910;4.430;2023-04-06T16:17:55;3.63;;;2.78;;
55794;SDS011;41716;51.910;4.430;2023-04-06T16:22:57;4.70;;;3.13;;
55794;SDS011;41716;51.910;4.430;2023-04-06T16:27:59;7.05;;;3.38;;
55794;SDS011;41716;51.910;4.430;2023-04-06T16:33:02;5.75;;;3.03;;
55794;SDS011;41716;51.910;4.430;2023-04-06T16:38:04;4.07;;;3.10;;
55794;SDS011;41716;51.910;4.430;2023-04-06T16:43:05;4.60;;;3.35;;
55794;SDS011;41716;51.910;4.430;2023-04-06T16:48:10;8.35;;;4.05;;
55794;SDS011;41716;51.910;4.430;2023-04-06T16:53:11;6.90;;;3.78;;
55794;SDS011;41716;51.910;4.430;2023-04-06T16:58:13;4.72;;;3.42;;
55794;SDS011;41716;51.910;4.430;2023-04-06T17:03:16;5.85;;;3.85;;
55794;SDS011;41716;51.910;4.430;2023-04-06T17:08:18;5.65;;;4.38;;
55794;SDS011;41716;51.910;4.430;2023-04-06T17:13:20;6.30;;;4.22;;
55794;SDS011;41716;51.910;4.430;2023-04-06T17:18:23;6.30;;;4.15;;
55794;SDS011;41716;51.910;4.430;2023-04-06T17:23:24;7.82;;;4.40;;
55794;SDS011;41716;51.910;4.430;2023-04-06T17:28:26;8.43;;;4.43;;
55794;SDS011;41716;51.910;4.430;2023-04-06T17:33:29;5.03;;;3.85;;
55794;SDS011;41716;51.910;4.430;2023-04-06T17:38:32;5.55;;;3.50;;
55794;SDS011;41716;51.910;4.430;2023-04-06T17:43:34;7.13;;;4.63;;
55794;SDS011;41716;51.910;4.430;2023-04-06T17:48:37;6.15;;;4.13;;
55794;SDS011;41716;51.910;4.430;2023-04-06T17:53:39;4.50;;;3.07;;
55794;SDS011;41716;51.910;4.430;2023-04-06T17:58:41;4.35;;;2.42;;
55794;SDS011;41716;51.910;4.430;2023-04-06T18:03:44;4.28;;;2.22;;
55794;SDS011;41716;51.910;4.430;2023-04-06T18:08:45;3.97;;;1.60;;
55794;SDS011;41716;51.910;4.430;2023-04-06T18:13:47;3.95;;;1.50;;
55794;SDS011;41716;51.910;4.430;2023-04-06T18:18:50;2.92;;;1.10;;
55794;SDS011;41716;51.910;4.430;2023-04-06T18:23:52;2.63;;;1.40;;
55794;SDS011;41716;51.910;4.430;2023-04-06T18:28:54;2.80;;;1.27;;
55794;SDS011;41716;51.910;4.430;2023-04-06T18:33:57;2.95;;;1.38;;
55794;SDS011;41716;51.910;4.430;2023-04-06T18:38:59;2.75;;;1.20;;
55794;SDS011;41716;51.910;4.430;2023-04-06T18:44:01;3.47;;;1.30;;
55794;SDS011;41716;51.910;4.430;2023-04-06T18:49:04;4.25;;;1.23;;
55794;SDS011;41716;51.910;4.430;2023-04-06T18:54:06;2.88;;;1.35;;
55794;SDS011;41716;51.910;4.430;2023-04-06T18:59:07;3.65;;;1.27;;
55794;SDS011;41716;51.910;4.430;2023-04-06T19:04:11;3.35;;;1.13;;
55794;SDS011;41716;51.910;4.430;2023-04-06T19:09:12;3.30;;;1.10;;
55794;SDS011;41716;51.910;4.430;2023-04-06T19:14:14;4.18;;;1.00;;
55794;SDS011;41716;51.910;4.430;2023-04-06T19:19:18;2.92;;;0.90;;
55794;SDS011;41716;51.910;4.430;2023-04-06T19:24:20;5.38;;;0.95;;
55794;SDS011;41716;51.910;4.430;2023-04-06T19:29:22;2.97;;;1.05;;
55794;SDS011;41716;51.910;4.430;2023-04-06T19:34:25;4.70;;;0.90;;
55794;SDS011;41716;51.910;4.430;2023-04-06T19:39:27;1.73;;;0.77;;
55794;SDS011;41716;51.910;4.430;2023-04-06T19:44:30;2.28;;;1.00;;
55794;SDS011;41716;51.910;4.430;2023-04-06T19:49:33;2.80;;;0.70;;
55794;SDS011;41716;51.910;4.430;2023-04-06T19:54:36;1.80;;;0.82;;
55794;SDS011;41716;51.910;4.430;2023-04-06T19:59:39;1.50;;;0.70;;
55794;SDS011;41716;51.910;4.430;2023-04-06T20:04:42;5.45;;;1.00;;
55794;SDS011;41716;51.910;4.430;2023-04-06T20:09:44;2.60;;;0.93;;
55794;SDS011;41716;51.910;4.430;2023-04-06T20:14:46;2.90;;;0.82;;
55794;SDS011;41716;51.910;4.430;2023-04-06T20:19:49;2.38;;;0.93;;
55794;SDS011;41716;51.910;4.430;2023-04-06T20:24:52;4.25;;;1.00;;
55794;SDS011;41716;51.910;4.430;2023-04-06T20:29:54;3.97;;;1.08;;
55794;SDS011;41716;51.910;4.430;2023-04-06T20:34:58;2.47;;;1.08;;
55794;SDS011;41716;51.910;4.430;2023-04-06T20:40:00;2.33;;;0.80;;
55794;SDS011;41716;51.910;4.430;2023-04-06T20:45:03;2.28;;;0.70;;
55794;SDS011;41716;51.910;4.430;2023-04-06T20:50:07;5.32;;;0.98;;
55794;SDS011;41716;51.910;4.430;2023-04-06T20:55:09;2.13;;;0.63;;
55794;SDS011;41716;51.910;4.430;2023-04-06T21:00:11;2.55;;;0.80;;
55794;SDS011;41716;51.910;4.430;2023-04-06T21:05:15;1.90;;;0.40;;
55794;SDS011;41716;51.910;4.430;2023-04-06T21:10:16;1.93;;;0.57;;
55794;SDS011;41716;51.910;4.430;2023-04-06T21:15:18;2.75;;;0.50;;
55794;SDS011;41716;51.910;4.430;2023-04-06T21:20:21;2.90;;;0.60;;
55794;SDS011;41716;51.910;4.430;2023-04-06T21:25:23;3.92;;;0.60;;
55794;SDS011;41716;51.910;4.430;2023-04-06T21:30:25;3.03;;;0.65;;
55794;SDS011;41716;51.910;4.430;2023-04-06T21:35:28;2.13;;;0.50;;
55794;SDS011;41716;51.910;4.430;2023-04-06T21:40:30;1.70;;;0.53;;
55794;SDS011;41716;51.910;4.430;2023-04-06T21:45:32;4.55;;;0.70;;
55794;SDS011;41716;51.910;4.430;2023-04-06T21:50:39;4.22;;;0.80;;
55794;SDS011;41716;51.910;4.430;2023-04-06T21:55:41;2.55;;;0.73;;
55794;SDS011;41716;51.910;4.430;2023-04-06T22:00:43;2.85;;;0.95;;
55794;SDS011;41716;51.910;4.430;2023-04-06T22:05:46;4.28;;;0.90;;
55794;SDS011;41716;51.910;4.430;2023-04-06T22:10:48;1.87;;;0.77;;
55794;SDS011;41716;51.910;4.430;2023-04-06T22:15:50;5.57;;;1.08;;
55794;SDS011;41716;51.910;4.430;2023-04-06T22:20:53;4.63;;;1.10;;
55794;SDS011;41716;51.910;4.430;2023-04-06T22:25:55;3.67;;;1.20;;
55794;SDS011;41716;51.910;4.430;2023-04-06T22:30:57;4.18;;;1.05;;
55794;SDS011;41716;51.910;4.430;2023-04-06T22:36:00;3.63;;;1.10;;
55794;SDS011;41716;51.910;4.430;2023-04-06T22:41:01;2.50;;;1.15;;
55794;SDS011;41716;51.910;4.430;2023-04-06T22:46:03;2.90;;;1.15;;
55794;SDS011;41716;51.910;4.430;2023-04-06T22:51:06;3.17;;;1.20;;
55794;SDS011;41716;51.910;4.430;2023-04-06T22:56:08;5.63;;;1.45;;
55794;SDS011;41716;51.910;4.430;2023-04-06T23:01:10;3.30;;;1.02;;
55794;SDS011;41716;51.910;4.430;2023-04-06T23:06:13;6.82;;;1.60;;
55794;SDS011;41716;51.910;4.430;2023-04-06T23:11:14;5.20;;;1.77;;
55794;SDS011;41716;51.910;4.430;2023-04-06T23:16:16;7.55;;;2.00;;
55794;SDS011;41716;51.910;4.430;2023-04-06T23:21:19;6.53;;;1.63;;
55794;SDS011;41716;51.910;4.430;2023-04-06T23:26:21;5.43;;;2.03;;
55794;SDS011;41716;51.910;4.430;2023-04-06T23:31:23;6.65;;;2.03;;
55794;SDS011;41716;51.910;4.430;2023-04-06T23:36:26;7.22;;;2.03;;
55794;SDS011;41716;51.910;4.430;2023-04-06T23:41:28;5.47;;;1.60;;
55794;SDS011;41716;51.910;4.430;2023-04-06T23:46:30;7.68;;;1.83;;
55794;SDS011;41716;51.910;4.430;2023-04-06T23:51:33;6.18;;;1.30;;
55794;SDS011;41716;51.910;4.430;2023-04-06T23:56:35;3.53;;;1.33;;
